createdAt,value
2023-04-03T00:00:23.763Z,18.51
2023-04-03T00:00:55.226Z,18.51
2023-04-03T00:01:26.655Z,18.50
2023-04-03T00:01:58.071Z,18.51
2023-04-03T00:02:29.532Z,18.50
2023-04-03T00:03:01.014Z,18.48
2023-04-03T00:03:32.454Z,18.49
2023-04-03T00:04:03.871Z,18.49
2023-04-03T00:04:35.353Z,18.48
2023-04-03T00:05:06.786Z,18.47
2023-04-03T00:05:38.193Z,18.47
2023-04-03T00:06:09.654Z,18.48
2023-04-03T00:06:41.066Z,18.47
2023-04-03T00:07:12.465Z,18.45
2023-04-03T00:07:43.854Z,18.45
2023-04-03T00:08:15.257Z,18.46
2023-04-03T00:08:46.677Z,18.44
2023-04-03T00:09:18.090Z,18.43
2023-04-03T00:09:49.502Z,18.44
2023-04-03T00:10:20.913Z,18.44
2023-04-03T00:10:52.340Z,18.44
2023-04-03T00:11:23.767Z,18.42
2023-04-03T00:11:55.164Z,18.43
2023-04-03T00:12:26.559Z,18.43
2023-04-03T00:12:57.956Z,18.42
2023-04-03T00:13:29.362Z,18.42
2023-04-03T00:14:00.753Z,18.42
2023-04-03T00:14:32.163Z,18.41
2023-04-03T00:15:03.566Z,18.40
2023-04-03T00:15:34.973Z,18.40
2023-04-03T00:16:06.368Z,18.39
2023-04-03T00:16:37.894Z,18.39
2023-04-03T00:17:09.376Z,18.39
2023-04-03T00:17:40.820Z,18.37
2023-04-03T00:18:12.237Z,18.37
2023-04-03T00:18:43.635Z,18.38
2023-04-03T00:19:15.024Z,18.38
2023-04-03T00:19:46.442Z,18.38
2023-04-03T00:20:17.864Z,18.38
2023-04-03T00:20:49.259Z,18.38
2023-04-03T00:21:20.670Z,18.38
2023-04-03T00:21:52.097Z,18.37
2023-04-03T00:22:23.502Z,18.35
2023-04-03T00:22:54.957Z,18.37
2023-04-03T00:23:26.388Z,18.35
2023-04-03T00:23:57.810Z,18.35
2023-04-03T00:24:29.234Z,18.33
2023-04-03T00:25:00.647Z,18.34
2023-04-03T00:25:32.061Z,18.34
2023-04-03T00:26:03.512Z,18.33
2023-04-03T00:26:34.938Z,18.34
2023-04-03T00:27:06.352Z,18.33
2023-04-03T00:27:37.756Z,18.32
2023-04-03T00:28:09.191Z,18.34
2023-04-03T00:28:40.608Z,18.33
2023-04-03T00:29:12.013Z,18.32
2023-04-03T00:29:43.431Z,18.33
2023-04-03T00:30:14.860Z,18.31
2023-04-03T00:30:46.318Z,18.30
2023-04-03T00:31:17.854Z,18.30
2023-04-03T00:31:49.298Z,18.30
2023-04-03T00:32:20.729Z,18.30
2023-04-03T00:32:52.190Z,18.31
2023-04-03T00:33:23.593Z,18.28
2023-04-03T00:33:55.004Z,18.28
2023-04-03T00:34:26.407Z,18.29
2023-04-03T00:34:57.829Z,18.29
2023-04-03T00:35:29.272Z,18.28
2023-04-03T00:36:00.767Z,18.28
2023-04-03T00:36:32.291Z,18.27
2023-04-03T00:37:03.868Z,18.26
2023-04-03T00:37:35.328Z,18.27
2023-04-03T00:38:06.721Z,18.26
2023-04-03T00:38:38.145Z,18.25
2023-04-03T00:39:09.566Z,18.26
2023-04-03T00:39:40.979Z,18.26
2023-04-03T00:40:12.376Z,18.26
2023-04-03T00:40:43.786Z,18.26
2023-04-03T00:41:15.190Z,18.25
2023-04-03T00:41:46.598Z,18.24
2023-04-03T00:42:18.019Z,18.24
2023-04-03T00:42:49.421Z,18.25
2023-04-03T00:43:20.842Z,18.23
2023-04-03T00:43:52.270Z,18.22
2023-04-03T00:44:23.670Z,18.22
2023-04-03T00:44:55.082Z,18.20
2023-04-03T00:45:26.470Z,18.21
2023-04-03T00:45:57.900Z,18.18
2023-04-03T00:46:29.344Z,18.19
2023-04-03T00:47:00.772Z,18.20
2023-04-03T00:47:32.184Z,18.19
2023-04-03T00:48:03.655Z,18.18
2023-04-03T00:48:35.084Z,18.18
2023-04-03T00:49:06.506Z,18.20
2023-04-03T00:49:37.889Z,18.18
2023-04-03T00:50:09.308Z,18.18
2023-04-03T00:50:40.789Z,18.16
2023-04-03T00:51:12.193Z,18.17
2023-04-03T00:51:43.593Z,18.17
2023-04-03T00:52:15.004Z,18.17
2023-04-03T00:52:46.422Z,18.16
2023-04-03T00:53:17.827Z,18.18
2023-04-03T00:53:49.231Z,18.14
2023-04-03T00:54:20.656Z,18.15
2023-04-03T00:54:52.046Z,18.15
2023-04-03T00:55:23.446Z,18.14
2023-04-03T00:55:54.859Z,18.15
2023-04-03T00:56:26.264Z,18.14
2023-04-03T00:56:57.702Z,18.13
2023-04-03T00:57:29.192Z,18.13
2023-04-03T00:58:00.629Z,18.14
2023-04-03T00:58:32.130Z,18.13
2023-04-03T00:59:03.562Z,18.13
2023-04-03T00:59:34.992Z,18.12
2023-04-03T01:00:06.390Z,18.13
2023-04-03T01:00:37.946Z,18.12
2023-04-03T01:01:09.621Z,18.12
2023-04-03T01:01:41.081Z,18.13
2023-04-03T01:02:12.526Z,18.12
2023-04-03T01:02:43.955Z,18.09
2023-04-03T01:03:15.392Z,18.11
2023-04-03T01:03:46.869Z,18.10
2023-04-03T01:04:18.333Z,18.10
2023-04-03T01:04:49.768Z,18.09
2023-04-03T01:05:21.157Z,18.08
2023-04-03T01:05:52.575Z,18.08
2023-04-03T01:06:23.991Z,18.06
2023-04-03T01:06:55.377Z,18.06
2023-04-03T01:07:26.786Z,18.08
2023-04-03T01:07:58.210Z,18.08
2023-04-03T01:08:29.618Z,18.06
2023-04-03T01:09:01.069Z,18.07
2023-04-03T01:09:32.486Z,18.04
2023-04-03T01:10:03.903Z,18.05
2023-04-03T01:10:35.617Z,18.05
2023-04-03T01:11:07.234Z,18.04
2023-04-03T01:11:38.655Z,18.03
2023-04-03T01:12:10.062Z,18.03
2023-04-03T01:12:41.492Z,18.04
2023-04-03T01:13:18.470Z,18.02
2023-04-03T01:13:49.881Z,18.02
2023-04-03T01:14:21.278Z,18.03
2023-04-03T01:14:52.697Z,18.02
2023-04-03T01:15:24.175Z,18.02
2023-04-03T01:15:55.630Z,18.03
2023-04-03T01:16:27.145Z,18.01
2023-04-03T01:16:58.595Z,18.01
2023-04-03T01:17:30.012Z,18.00
2023-04-03T01:18:01.437Z,18.00
2023-04-03T01:18:32.907Z,17.98
2023-04-03T01:19:04.298Z,18.00
2023-04-03T01:19:35.697Z,18.00
2023-04-03T01:20:07.144Z,17.98
2023-04-03T01:20:38.858Z,17.99
2023-04-03T01:21:10.486Z,17.99
2023-04-03T01:21:41.911Z,17.99
2023-04-03T01:22:13.318Z,17.96
2023-04-03T01:22:44.718Z,17.97
2023-04-03T01:23:16.131Z,17.96
2023-04-03T01:23:47.542Z,17.96
2023-04-03T01:24:18.933Z,17.95
2023-04-03T01:24:50.334Z,17.97
2023-04-03T01:25:21.737Z,17.96
2023-04-03T01:25:53.154Z,17.95
2023-04-03T01:26:24.572Z,17.95
2023-04-03T01:26:55.978Z,17.96
2023-04-03T01:27:27.386Z,17.96
2023-04-03T01:27:58.793Z,17.95
2023-04-03T01:28:30.243Z,17.94
2023-04-03T01:29:01.628Z,17.94
2023-04-03T01:29:33.049Z,17.92
2023-04-03T01:30:04.442Z,17.92
2023-04-03T01:30:36.086Z,17.91
2023-04-03T01:31:07.618Z,17.92
2023-04-03T01:31:39.041Z,17.90
2023-04-03T01:32:10.484Z,17.89
2023-04-03T01:32:41.946Z,17.89
2023-04-03T01:33:13.420Z,17.90
2023-04-03T01:33:44.843Z,17.90
2023-04-03T01:34:16.235Z,17.89
2023-04-03T01:34:47.641Z,17.88
2023-04-03T01:35:19.042Z,17.89
2023-04-03T01:35:50.449Z,17.90
2023-04-03T01:36:21.909Z,17.91
2023-04-03T01:36:53.320Z,17.89
2023-04-03T01:37:24.707Z,17.90
2023-04-03T01:37:56.155Z,17.90
2023-04-03T01:38:27.548Z,17.90
2023-04-03T01:38:58.972Z,17.91
2023-04-03T01:39:30.367Z,17.90
2023-04-03T01:40:01.777Z,17.90
2023-04-03T01:40:33.175Z,17.90
2023-04-03T01:41:04.610Z,17.89
2023-04-03T01:41:36.022Z,17.90
2023-04-03T01:42:07.430Z,17.90
2023-04-03T01:42:38.893Z,17.91
2023-04-03T01:43:10.326Z,17.89
2023-04-03T01:43:41.785Z,17.88
2023-04-03T01:44:13.191Z,17.90
2023-04-03T01:44:44.594Z,17.89
2023-04-03T01:45:15.994Z,17.90
2023-04-03T01:45:47.603Z,17.89
2023-04-03T01:46:19.229Z,17.90
2023-04-03T01:46:50.708Z,17.88
2023-04-03T01:47:22.190Z,17.87
2023-04-03T01:47:53.687Z,17.87
2023-04-03T01:48:25.090Z,17.88
2023-04-03T01:48:56.545Z,17.89
2023-04-03T01:49:27.956Z,17.89
2023-04-03T01:49:59.366Z,17.89
2023-04-03T01:50:30.779Z,17.89
2023-04-03T01:51:02.181Z,17.89
2023-04-03T01:51:33.581Z,17.89
2023-04-03T01:52:04.978Z,17.87
2023-04-03T01:52:36.364Z,17.89
2023-04-03T01:53:07.769Z,17.89
2023-04-03T01:53:39.182Z,17.89
2023-04-03T01:54:10.627Z,17.88
2023-04-03T01:54:42.046Z,17.89
2023-04-03T01:55:13.474Z,17.89
2023-04-03T01:55:44.882Z,17.89
2023-04-03T01:56:16.288Z,17.89
2023-04-03T01:56:47.701Z,17.88
2023-04-03T01:57:19.136Z,17.88
2023-04-03T01:57:50.561Z,17.88
2023-04-03T01:58:22.026Z,17.89
2023-04-03T01:58:53.434Z,17.88
2023-04-03T01:59:24.869Z,17.88
2023-04-03T01:59:56.270Z,17.88
2023-04-03T02:00:27.680Z,17.87
2023-04-03T02:00:59.116Z,17.88
2023-04-03T02:01:30.634Z,17.89
2023-04-03T02:02:02.052Z,17.88
2023-04-03T02:02:33.505Z,17.87
2023-04-03T02:03:05.016Z,17.87
2023-04-03T02:03:36.524Z,17.88
2023-04-03T02:04:08.053Z,17.88
2023-04-03T02:04:39.556Z,17.88
2023-04-03T02:05:10.947Z,17.87
2023-04-03T02:05:42.349Z,17.86
2023-04-03T02:06:13.756Z,17.88
2023-04-03T02:06:45.181Z,17.89
2023-04-03T02:07:16.580Z,17.89
2023-04-03T02:07:47.984Z,17.87
2023-04-03T02:08:19.392Z,17.88
2023-04-03T02:08:50.799Z,17.87
2023-04-03T02:09:22.207Z,17.88
2023-04-03T02:09:53.628Z,17.87
2023-04-03T02:10:25.030Z,17.87
2023-04-03T02:10:56.468Z,17.87
2023-04-03T02:11:27.892Z,17.87
2023-04-03T02:11:59.308Z,17.88
2023-04-03T02:12:30.704Z,17.87
2023-04-03T02:13:02.102Z,17.87
2023-04-03T02:13:33.508Z,17.87
2023-04-03T02:14:04.924Z,17.87
2023-04-03T02:14:36.342Z,17.87
2023-04-03T02:15:07.799Z,17.86
2023-04-03T02:15:39.194Z,17.85
2023-04-03T02:16:10.628Z,17.86
2023-04-03T02:16:42.087Z,17.86
2023-04-03T02:17:13.607Z,17.86
2023-04-03T02:17:45.070Z,17.85
2023-04-03T02:18:16.527Z,17.85
2023-04-03T02:18:47.960Z,17.86
2023-04-03T02:19:19.382Z,17.85
2023-04-03T02:19:50.771Z,17.85
2023-04-03T02:20:22.208Z,17.86
2023-04-03T02:20:53.601Z,17.85
2023-04-03T02:21:25.042Z,17.85
2023-04-03T02:21:56.460Z,17.84
2023-04-03T02:22:27.856Z,17.83
2023-04-03T02:22:59.248Z,17.84
2023-04-03T02:23:30.657Z,17.84
2023-04-03T02:24:02.082Z,17.85
2023-04-03T02:24:33.489Z,17.85
2023-04-03T02:25:04.885Z,17.85
2023-04-03T02:25:38.064Z,17.83
2023-04-03T02:26:10.193Z,17.84
2023-04-03T02:26:41.593Z,17.83
2023-04-03T02:27:12.999Z,17.81
2023-04-03T02:27:44.395Z,17.82
2023-04-03T02:28:15.805Z,17.81
2023-04-03T02:28:47.194Z,17.81
2023-04-03T02:29:18.601Z,17.81
2023-04-03T02:29:49.995Z,17.82
2023-04-03T02:30:21.410Z,17.81
2023-04-03T02:30:52.875Z,17.81
2023-04-03T02:31:24.392Z,17.81
2023-04-03T02:31:55.822Z,17.80
2023-04-03T02:32:27.249Z,17.80
2023-04-03T02:32:58.813Z,17.80
2023-04-03T02:33:30.267Z,17.81
2023-04-03T02:34:01.658Z,17.80
2023-04-03T02:34:33.046Z,17.78
2023-04-03T02:35:04.458Z,17.78
2023-04-03T02:35:35.880Z,17.78
2023-04-03T02:36:07.405Z,17.78
2023-04-03T02:36:38.882Z,17.79
2023-04-03T02:37:10.281Z,17.79
2023-04-03T02:37:41.708Z,17.78
2023-04-03T02:38:13.115Z,17.79
2023-04-03T02:38:44.537Z,17.78
2023-04-03T02:39:15.931Z,17.76
2023-04-03T02:39:47.344Z,17.77
2023-04-03T02:40:18.748Z,17.76
2023-04-03T02:40:50.159Z,17.77
2023-04-03T02:41:21.601Z,17.77
2023-04-03T02:41:52.995Z,17.78
2023-04-03T02:42:24.414Z,17.76
2023-04-03T02:42:55.829Z,17.77
2023-04-03T02:43:27.238Z,17.75
2023-04-03T02:43:58.671Z,17.75
2023-04-03T02:44:30.069Z,17.75
2023-04-03T02:45:01.483Z,17.75
2023-04-03T02:45:32.870Z,17.75
2023-04-03T02:46:04.267Z,17.77
2023-04-03T02:46:35.750Z,17.74
2023-04-03T02:47:07.189Z,17.73
2023-04-03T02:47:38.590Z,17.74
2023-04-03T02:48:10.049Z,17.74
2023-04-03T02:48:41.499Z,17.72
2023-04-03T02:49:12.906Z,17.72
2023-04-03T02:49:44.304Z,17.70
2023-04-03T02:50:15.725Z,17.72
2023-04-03T02:50:47.117Z,17.72
2023-04-03T02:51:18.522Z,17.71
2023-04-03T02:51:49.953Z,17.72
2023-04-03T02:52:21.349Z,17.72
2023-04-03T02:52:52.743Z,17.73
2023-04-03T02:53:24.154Z,17.72
2023-04-03T02:53:55.566Z,17.71
2023-04-03T02:54:26.968Z,17.71
2023-04-03T02:54:58.375Z,17.71
2023-04-03T02:55:29.762Z,17.72
2023-04-03T02:56:01.171Z,17.72
2023-04-03T02:56:32.626Z,17.70
2023-04-03T02:57:04.053Z,17.72
2023-04-03T02:57:35.513Z,17.71
2023-04-03T02:58:09.635Z,17.70
2023-04-03T02:58:41.211Z,17.69
2023-04-03T02:59:12.602Z,17.70
2023-04-03T02:59:44.024Z,17.69
2023-04-03T03:00:15.442Z,17.70
2023-04-03T03:00:46.849Z,17.68
2023-04-03T03:01:18.454Z,17.69
2023-04-03T03:01:49.978Z,17.68
2023-04-03T03:02:21.441Z,17.68
2023-04-03T03:02:52.893Z,17.67
2023-04-03T03:03:24.449Z,17.66
2023-04-03T03:03:55.839Z,17.67
2023-04-03T03:04:27.242Z,17.67
2023-04-03T03:04:58.660Z,17.66
2023-04-03T03:05:30.070Z,17.65
2023-04-03T03:06:01.484Z,17.66
2023-04-03T03:06:32.893Z,17.65
2023-04-03T03:07:04.304Z,17.64
2023-04-03T03:07:35.721Z,17.64
2023-04-03T03:08:07.135Z,17.63
2023-04-03T03:08:38.534Z,17.62
2023-04-03T03:09:09.942Z,17.62
2023-04-03T03:09:41.341Z,17.63
2023-04-03T03:10:12.749Z,17.63
2023-04-03T03:10:44.158Z,17.63
2023-04-03T03:11:15.580Z,17.62
2023-04-03T03:11:46.992Z,17.62
2023-04-03T03:12:18.422Z,17.63
2023-04-03T03:12:49.858Z,17.61
2023-04-03T03:13:21.263Z,17.60
2023-04-03T03:13:52.674Z,17.61
2023-04-03T03:14:24.062Z,17.61
2023-04-03T03:14:55.463Z,17.59
2023-04-03T03:15:26.874Z,17.59
2023-04-03T03:15:58.286Z,17.59
2023-04-03T03:16:29.694Z,17.59
2023-04-03T03:17:01.156Z,17.58
2023-04-03T03:17:32.620Z,17.58
2023-04-03T03:18:04.192Z,17.58
2023-04-03T03:18:35.601Z,17.58
2023-04-03T03:19:06.993Z,17.57
2023-04-03T03:19:38.418Z,17.58
2023-04-03T03:20:09.810Z,17.57
2023-04-03T03:20:41.204Z,17.56
2023-04-03T03:21:12.623Z,17.56
2023-04-03T03:21:44.034Z,17.55
2023-04-03T03:22:15.446Z,17.53
2023-04-03T03:22:46.852Z,17.54
2023-04-03T03:23:18.281Z,17.55
2023-04-03T03:23:49.691Z,17.54
2023-04-03T03:24:21.109Z,17.53
2023-04-03T03:24:52.509Z,17.53
2023-04-03T03:25:23.910Z,17.53
2023-04-03T03:25:55.313Z,17.54
2023-04-03T03:26:26.731Z,17.53
2023-04-03T03:26:58.149Z,17.53
2023-04-03T03:27:29.552Z,17.52
2023-04-03T03:28:00.947Z,17.53
2023-04-03T03:28:32.375Z,17.53
2023-04-03T03:29:03.846Z,17.52
2023-04-03T03:29:35.240Z,17.52
2023-04-03T03:30:06.653Z,17.52
2023-04-03T03:30:38.069Z,17.53
2023-04-03T03:31:09.523Z,17.52
2023-04-03T03:31:40.995Z,17.51
2023-04-03T03:32:12.423Z,17.52
2023-04-03T03:32:43.879Z,17.51
2023-04-03T03:33:15.381Z,17.51
2023-04-03T03:33:46.798Z,17.51
2023-04-03T03:34:18.206Z,17.52
2023-04-03T03:34:49.612Z,17.51
2023-04-03T03:35:21.024Z,17.49
2023-04-03T03:35:52.437Z,17.51
2023-04-03T03:36:23.915Z,17.51
2023-04-03T03:36:55.381Z,17.51
2023-04-03T03:37:26.798Z,17.49
2023-04-03T03:37:58.200Z,17.51
2023-04-03T03:38:29.614Z,17.50
2023-04-03T03:39:01.024Z,17.50
2023-04-03T03:39:32.451Z,17.50
2023-04-03T03:40:03.861Z,17.48
2023-04-03T03:40:35.286Z,17.48
2023-04-03T03:41:06.690Z,17.48
2023-04-03T03:41:38.101Z,17.49
2023-04-03T03:42:09.506Z,17.48
2023-04-03T03:42:40.921Z,17.48
2023-04-03T03:43:12.312Z,17.48
2023-04-03T03:43:43.733Z,17.48
2023-04-03T03:44:15.446Z,17.47
2023-04-03T03:44:47.369Z,17.46
2023-04-03T03:45:18.770Z,17.45
2023-04-03T03:45:50.168Z,17.44
2023-04-03T03:46:21.593Z,17.46
2023-04-03T03:46:53.085Z,17.46
2023-04-03T03:47:24.538Z,17.45
2023-04-03T03:47:56.010Z,17.46
2023-04-03T03:48:27.459Z,17.45
2023-04-03T03:48:58.870Z,17.43
2023-04-03T03:49:30.263Z,17.45
2023-04-03T03:50:01.696Z,17.43
2023-04-03T03:50:33.090Z,17.43
2023-04-03T03:51:04.510Z,17.43
2023-04-03T03:51:35.906Z,17.45
2023-04-03T03:52:07.294Z,17.43
2023-04-03T03:52:38.701Z,17.43
2023-04-03T03:53:10.124Z,17.42
2023-04-03T03:53:41.518Z,17.43
2023-04-03T03:54:12.956Z,17.42
2023-04-03T03:54:44.360Z,17.42
2023-04-03T03:55:15.766Z,17.42
2023-04-03T03:55:47.174Z,17.42
2023-04-03T03:56:18.586Z,17.41
2023-04-03T03:56:50.047Z,17.41
2023-04-03T03:57:21.548Z,17.41
2023-04-03T03:57:53.037Z,17.41
2023-04-03T03:58:24.451Z,17.41
2023-04-03T03:58:55.886Z,17.40
2023-04-03T03:59:27.298Z,17.40
2023-04-03T03:59:58.698Z,17.40
2023-04-03T04:00:30.110Z,17.41
2023-04-03T04:01:01.557Z,17.39
2023-04-03T04:01:32.973Z,17.39
2023-04-03T04:02:04.428Z,17.38
2023-04-03T04:02:35.970Z,17.39
2023-04-03T04:03:07.546Z,17.39
2023-04-03T04:03:39.060Z,17.37
2023-04-03T04:04:10.613Z,17.38
2023-04-03T04:04:42.023Z,17.37
2023-04-03T04:05:13.450Z,17.37
2023-04-03T04:05:44.837Z,17.37
2023-04-03T04:06:16.266Z,17.37
2023-04-03T04:06:47.668Z,17.36
2023-04-03T04:07:19.066Z,17.36
2023-04-03T04:07:50.477Z,17.36
2023-04-03T04:08:21.877Z,17.35
2023-04-03T04:08:53.278Z,17.35
2023-04-03T04:09:24.704Z,17.35
2023-04-03T04:09:56.104Z,17.37
2023-04-03T04:10:27.552Z,17.34
2023-04-03T04:10:58.991Z,17.34
2023-04-03T04:11:30.397Z,17.34
2023-04-03T04:12:01.806Z,17.35
2023-04-03T04:12:33.232Z,17.33
2023-04-03T04:13:04.634Z,17.33
2023-04-03T04:13:36.040Z,17.33
2023-04-03T04:14:07.430Z,17.34
2023-04-03T04:14:38.921Z,17.35
2023-04-03T04:15:10.327Z,17.34
2023-04-03T04:15:41.725Z,17.35
2023-04-03T04:16:13.210Z,17.35
2023-04-03T04:16:44.693Z,17.34
2023-04-03T04:17:16.128Z,17.35
2023-04-03T04:17:47.597Z,17.33
2023-04-03T04:18:19.028Z,17.34
2023-04-03T04:18:50.419Z,17.33
2023-04-03T04:19:21.829Z,17.33
2023-04-03T04:19:53.262Z,17.33
2023-04-03T04:20:24.729Z,17.33
2023-04-03T04:20:56.129Z,17.33
2023-04-03T04:21:27.550Z,17.33
2023-04-03T04:21:58.965Z,17.33
2023-04-03T04:22:30.382Z,17.32
2023-04-03T04:23:01.782Z,17.32
2023-04-03T04:23:33.192Z,17.33
2023-04-03T04:24:04.587Z,17.33
2023-04-03T04:24:37.890Z,17.31
2023-04-03T04:25:09.910Z,17.31
2023-04-03T04:25:41.308Z,17.32
2023-04-03T04:26:12.730Z,17.31
2023-04-03T04:26:44.165Z,17.31
2023-04-03T04:27:15.569Z,17.32
2023-04-03T04:27:46.978Z,17.31
2023-04-03T04:28:18.394Z,17.31
2023-04-03T04:28:49.796Z,17.29
2023-04-03T04:29:21.213Z,17.32
2023-04-03T04:29:52.602Z,17.31
2023-04-03T04:30:23.989Z,17.31
2023-04-03T04:30:55.453Z,17.31
2023-04-03T04:31:26.912Z,17.30
2023-04-03T04:31:58.367Z,17.30
2023-04-03T04:32:29.817Z,17.29
2023-04-03T04:33:01.305Z,17.27
2023-04-03T04:33:32.785Z,17.28
2023-04-03T04:34:04.208Z,17.28
2023-04-03T04:34:35.655Z,17.28
2023-04-03T04:35:07.113Z,17.29
2023-04-03T04:35:38.822Z,17.29
2023-04-03T04:36:10.636Z,17.30
2023-04-03T04:36:42.182Z,17.29
2023-04-03T04:37:13.674Z,17.28
2023-04-03T04:37:45.086Z,17.28
2023-04-03T04:38:16.608Z,17.28
2023-04-03T04:38:48.000Z,17.26
2023-04-03T04:39:19.424Z,17.26
2023-04-03T04:39:50.841Z,17.25
2023-04-03T04:40:22.248Z,17.26
2023-04-03T04:40:53.660Z,17.26
2023-04-03T04:41:25.066Z,17.26
2023-04-03T04:41:56.473Z,17.25
2023-04-03T04:42:27.892Z,17.26
2023-04-03T04:42:59.299Z,17.26
2023-04-03T04:43:30.697Z,17.26
2023-04-03T04:44:02.109Z,17.27
2023-04-03T04:44:33.515Z,17.28
2023-04-03T04:45:04.901Z,17.27
2023-04-03T04:45:36.494Z,17.28
2023-04-03T04:46:08.107Z,17.28
2023-04-03T04:46:39.660Z,17.28
2023-04-03T04:47:11.126Z,17.29
2023-04-03T04:47:42.599Z,17.29
2023-04-03T04:48:14.018Z,17.30
2023-04-03T04:48:45.428Z,17.29
2023-04-03T04:49:16.839Z,17.29
2023-04-03T04:49:48.255Z,17.29
2023-04-03T04:50:19.675Z,17.29
2023-04-03T04:50:51.078Z,17.29
2023-04-03T04:51:22.510Z,17.29
2023-04-03T04:51:53.957Z,17.28
2023-04-03T04:52:25.400Z,17.28
2023-04-03T04:52:56.881Z,17.29
2023-04-03T04:53:28.290Z,17.29
2023-04-03T04:53:59.693Z,17.29
2023-04-03T04:54:31.088Z,17.29
2023-04-03T04:55:02.512Z,17.29
2023-04-03T04:55:33.947Z,17.28
2023-04-03T04:56:05.367Z,17.29
2023-04-03T04:56:36.774Z,17.28
2023-04-03T04:57:08.217Z,17.28
2023-04-03T04:57:39.914Z,17.29
2023-04-03T04:58:11.413Z,17.28
2023-04-03T04:58:42.825Z,17.26
2023-04-03T04:59:14.247Z,17.28
2023-04-03T04:59:45.639Z,17.28
2023-04-03T05:00:17.034Z,17.28
2023-04-03T05:00:48.444Z,17.28
2023-04-03T05:01:19.913Z,17.29
2023-04-03T05:01:51.407Z,17.28
2023-04-03T05:02:22.826Z,17.28
2023-04-03T05:02:54.315Z,17.28
2023-04-03T05:03:25.780Z,17.27
2023-04-03T05:03:57.164Z,17.26
2023-04-03T05:04:28.598Z,17.26
2023-04-03T05:05:00.048Z,17.27
2023-04-03T05:05:31.489Z,17.27
2023-04-03T05:06:02.910Z,17.26
2023-04-03T05:06:34.308Z,17.25
2023-04-03T05:07:05.770Z,17.25
2023-04-03T05:07:37.196Z,17.25
2023-04-03T05:08:08.624Z,17.25
2023-04-03T05:08:40.034Z,17.25
2023-04-03T05:09:11.426Z,17.25
2023-04-03T05:09:42.846Z,17.25
2023-04-03T05:10:14.258Z,17.25
2023-04-03T05:10:45.676Z,17.25
2023-04-03T05:11:17.070Z,17.25
2023-04-03T05:11:48.502Z,17.25
2023-04-03T05:12:19.935Z,17.25
2023-04-03T05:12:51.355Z,17.25
2023-04-03T05:13:22.758Z,17.24
2023-04-03T05:13:54.165Z,17.24
2023-04-03T05:14:25.575Z,17.24
2023-04-03T05:14:56.969Z,17.23
2023-04-03T05:15:28.358Z,17.22
2023-04-03T05:15:59.784Z,17.23
2023-04-03T05:16:31.256Z,17.23
2023-04-03T05:17:02.711Z,17.21
2023-04-03T05:17:34.200Z,17.22
2023-04-03T05:18:05.642Z,17.22
2023-04-03T05:18:37.113Z,17.23
2023-04-03T05:19:08.543Z,17.23
2023-04-03T05:19:39.954Z,17.22
2023-04-03T05:20:11.375Z,17.22
2023-04-03T05:20:42.761Z,17.20
2023-04-03T05:21:14.168Z,17.20
2023-04-03T05:21:45.590Z,17.21
2023-04-03T05:22:16.997Z,17.20
2023-04-03T05:22:48.414Z,17.20
2023-04-03T05:23:19.810Z,17.21
2023-04-03T05:23:51.203Z,17.21
2023-04-03T05:24:22.618Z,17.21
2023-04-03T05:24:54.011Z,17.23
2023-04-03T05:25:27.210Z,17.21
2023-04-03T05:25:58.680Z,17.21
2023-04-03T05:26:30.091Z,17.20
2023-04-03T05:27:01.499Z,17.20
2023-04-03T05:27:32.965Z,17.20
2023-04-03T05:28:04.382Z,17.20
2023-04-03T05:28:35.779Z,17.20
2023-04-03T05:29:07.183Z,17.20
2023-04-03T05:29:38.590Z,17.20
2023-04-03T05:30:09.985Z,17.20
2023-04-03T05:30:41.388Z,17.21
2023-04-03T05:31:12.785Z,17.21
2023-04-03T05:31:44.233Z,17.20
2023-04-03T05:32:15.786Z,17.19
2023-04-03T05:32:47.226Z,17.20
2023-04-03T05:33:18.644Z,17.22
2023-04-03T05:33:50.059Z,17.22
2023-04-03T05:34:21.494Z,17.22
2023-04-03T05:34:52.885Z,17.21
2023-04-03T05:35:24.287Z,17.22
2023-04-03T05:35:56.060Z,17.21
2023-04-03T05:36:27.649Z,17.21
2023-04-03T05:36:59.223Z,17.20
2023-04-03T05:37:30.703Z,17.18
2023-04-03T05:38:02.191Z,17.18
2023-04-03T05:38:33.709Z,17.18
2023-04-03T05:39:05.261Z,17.19
2023-04-03T05:39:36.761Z,17.18
2023-04-03T05:40:08.165Z,17.18
2023-04-03T05:40:39.580Z,17.19
2023-04-03T05:41:11.000Z,17.18
2023-04-03T05:41:42.406Z,17.20
2023-04-03T05:42:13.798Z,17.18
2023-04-03T05:42:45.220Z,17.18
2023-04-03T05:43:16.627Z,17.19
2023-04-03T05:43:48.024Z,17.19
2023-04-03T05:44:19.414Z,17.17
2023-04-03T05:44:50.815Z,17.19
2023-04-03T05:45:22.196Z,17.18
2023-04-03T05:45:53.626Z,17.17
2023-04-03T05:46:25.132Z,17.17
2023-04-03T05:46:56.613Z,17.17
2023-04-03T05:47:28.042Z,17.16
2023-04-03T05:47:59.609Z,17.17
2023-04-03T05:48:31.067Z,17.16
2023-04-03T05:49:02.465Z,17.16
2023-04-03T05:49:33.877Z,17.17
2023-04-03T05:50:05.292Z,17.17
2023-04-03T05:50:36.710Z,17.17
2023-04-03T05:51:08.112Z,17.15
2023-04-03T05:51:39.531Z,17.16
2023-04-03T05:52:10.950Z,17.16
2023-04-03T05:52:42.381Z,17.16
2023-04-03T05:53:13.852Z,17.17
2023-04-03T05:53:45.424Z,17.16
2023-04-03T05:54:16.839Z,17.16
2023-04-03T05:54:48.446Z,17.15
2023-04-03T05:55:20.045Z,17.14
2023-04-03T05:55:51.454Z,17.15
2023-04-03T05:56:22.853Z,17.15
2023-04-03T05:56:54.369Z,17.15
2023-04-03T05:57:25.914Z,17.14
2023-04-03T05:57:57.412Z,17.15
2023-04-03T05:58:28.837Z,17.15
2023-04-03T05:59:00.226Z,17.15
2023-04-03T05:59:31.629Z,17.15
2023-04-03T06:00:03.047Z,17.14
2023-04-03T06:00:34.462Z,17.14
2023-04-03T06:01:05.881Z,17.16
2023-04-03T06:01:37.288Z,17.15
2023-04-03T06:02:08.690Z,17.14
2023-04-03T06:02:40.224Z,17.14
2023-04-03T06:03:11.863Z,17.14
2023-04-03T06:03:43.512Z,17.15
2023-04-03T06:04:15.198Z,17.14
2023-04-03T06:04:46.734Z,17.13
2023-04-03T06:05:18.193Z,17.14
2023-04-03T06:05:49.605Z,17.15
2023-04-03T06:06:21.017Z,17.13
2023-04-03T06:06:52.520Z,17.14
2023-04-03T06:07:23.972Z,17.13
2023-04-03T06:07:55.410Z,17.15
2023-04-03T06:08:26.812Z,17.15
2023-04-03T06:08:58.223Z,17.14
2023-04-03T06:09:29.652Z,17.16
2023-04-03T06:10:01.138Z,17.16
2023-04-03T06:10:32.604Z,17.16
2023-04-03T06:11:04.010Z,17.16
2023-04-03T06:11:35.416Z,17.17
2023-04-03T06:12:06.823Z,17.17
2023-04-03T06:12:38.252Z,17.17
2023-04-03T06:13:09.679Z,17.18
2023-04-03T06:13:41.074Z,17.17
2023-04-03T06:14:12.487Z,17.18
2023-04-03T06:14:43.943Z,17.18
2023-04-03T06:15:15.357Z,17.18
2023-04-03T06:15:46.773Z,17.19
2023-04-03T06:16:18.189Z,17.18
2023-04-03T06:16:49.619Z,17.19
2023-04-03T06:17:21.162Z,17.19
2023-04-03T06:17:52.815Z,17.19
2023-04-03T06:18:24.313Z,17.18
2023-04-03T06:18:55.720Z,17.19
2023-04-03T06:19:27.131Z,17.20
2023-04-03T06:19:58.578Z,17.21
2023-04-03T06:20:29.977Z,17.20
2023-04-03T06:21:01.369Z,17.20
2023-04-03T06:21:32.762Z,17.20
2023-04-03T06:22:04.177Z,17.22
2023-04-03T06:22:35.582Z,17.23
2023-04-03T06:23:08.478Z,17.22
2023-04-03T06:23:40.055Z,17.24
2023-04-03T06:24:11.466Z,17.24
2023-04-03T06:24:42.928Z,17.24
2023-04-03T06:25:14.327Z,17.24
2023-04-03T06:25:45.731Z,17.25
2023-04-03T06:26:17.133Z,17.25
2023-04-03T06:26:48.517Z,17.24
2023-04-03T06:27:19.937Z,17.25
2023-04-03T06:27:51.356Z,17.26
2023-04-03T06:28:22.885Z,17.26
2023-04-03T06:28:54.294Z,17.27
2023-04-03T06:29:25.725Z,17.27
2023-04-03T06:29:57.119Z,17.27
2023-04-03T06:30:28.541Z,17.28
2023-04-03T06:30:59.975Z,17.28
2023-04-03T06:31:31.513Z,17.28
2023-04-03T06:32:02.972Z,17.28
2023-04-03T06:33:05.795Z,17.30
2023-04-03T06:33:37.346Z,17.31
2023-04-03T06:34:09.726Z,17.29
2023-04-03T06:34:41.312Z,17.30
2023-04-03T06:35:12.716Z,17.30
2023-04-03T06:35:44.132Z,17.30
2023-04-03T06:36:15.574Z,17.31
2023-04-03T06:36:47.018Z,17.31
2023-04-03T06:37:18.435Z,17.30
2023-04-03T06:37:49.845Z,17.31
2023-04-03T06:38:21.284Z,17.31
2023-04-03T06:38:52.761Z,17.31
2023-04-03T06:39:24.178Z,17.30
2023-04-03T06:39:55.584Z,17.31
2023-04-03T06:40:27.013Z,17.32
2023-04-03T06:40:58.495Z,17.32
2023-04-03T06:41:29.902Z,17.32
2023-04-03T06:42:01.326Z,17.33
2023-04-03T06:42:32.717Z,17.33
2023-04-03T06:43:04.120Z,17.32
2023-04-03T06:43:35.563Z,17.33
2023-04-03T06:44:06.992Z,17.32
2023-04-03T06:44:38.381Z,17.32
2023-04-03T06:45:09.813Z,17.32
2023-04-03T06:45:41.209Z,17.33